Time;durP1;ratioP1;P1;durP2;ratioP2;P2;SDS_P1;SDS_P2;PMS_P1;PMS_P2;Temp;Humidity;BMP_temperature;BMP_pressure;BME280_temperature;BME280_humidity;BME280_pressure;Samples;Min_cycle;Max_cycle;Signal;HPM_P1;HPM_P2
2023/02/02 00:01:21;;;;;;;16.13;2.43;;;5.20;99.90;;;;;;4971973;28;20197;-76
2023/02/02 00:03:49;;;;;;;15.67;2.03;;;5.30;99.90;;;;;;4971496;28;20228;-76
2023/02/02 00:06:16;;;;;;;12.80;2.43;;;5.30;99.90;;;;;;4972095;28;20217;-76
2023/02/02 00:08:43;;;;;;;13.40;2.40;;;5.30;99.90;;;;;;4970721;28;20233;-75
2023/02/02 00:11:10;;;;;;;16.53;2.70;;;5.30;99.90;;;;;;4972152;28;20225;-75
2023/02/02 00:13:37;;;;;;;10.47;2.20;;;5.20;99.90;;;;;;4970172;28;20324;-76
2023/02/02 00:16:37;;;;;;;13.10;2.20;;;5.20;99.90;;;;;;4971026;28;20638;-76
2023/02/02 00:19:06;;;;;;;12.57;1.90;;;5.20;99.90;;;;;;4970950;28;20237;-76
2023/02/02 00:21:33;;;;;;;18.30;2.20;;;5.10;99.90;;;;;;4971483;28;20292;-76
2023/02/02 00:24:00;;;;;;;14.27;2.60;;;5.20;99.90;;;;;;4971658;28;20276;-75
2023/02/02 00:26:27;;;;;;;11.57;2.40;;;5.20;99.90;;;;;;4971909;28;20230;-76
2023/02/02 00:28:54;;;;;;;14.70;4.60;;;5.30;99.90;;;;;;4971144;28;20280;-76
2023/02/02 00:31:22;;;;;;;12.40;2.00;;;5.40;99.90;;;;;;4971823;28;20268;-76
2023/02/02 00:33:51;;;;;;;10.03;2.23;;;5.40;99.90;;;;;;4971062;28;20233;-75
2023/02/02 00:36:19;;;;;;;12.17;2.20;;;5.40;99.90;;;;;;4971708;28;20292;-76
2023/02/02 00:38:47;;;;;;;11.60;2.30;;;5.30;99.90;;;;;;4971548;28;20244;-75
2023/02/02 00:41:14;;;;;;;13.47;2.13;;;5.30;99.90;;;;;;4970771;28;20292;-76
2023/02/02 00:43:41;;;;;;;10.77;1.93;;;5.40;99.90;;;;;;4971401;28;20245;-76
2023/02/02 00:46:11;;;;;;;15.70;2.37;;;5.40;99.90;;;;;;4972198;28;20510;-75
2023/02/02 00:48:38;;;;;;;14.37;2.27;;;5.40;99.90;;;;;;4974900;28;20414;-76
2023/02/02 00:51:06;;;;;;;13.13;2.17;;;5.50;99.90;;;;;;4975878;28;20312;-75
2023/02/02 00:53:33;;;;;;;11.47;2.07;;;5.60;99.90;;;;;;4973601;28;20289;-75
2023/02/02 00:56:00;;;;;;;16.53;2.63;;;5.50;99.90;;;;;;4975024;28;20229;-75
2023/02/02 00:58:27;;;;;;;12.90;3.27;;;5.50;99.90;;;;;;4975217;28;20292;-76
2023/02/02 01:00:54;;;;;;;14.00;2.73;;;5.50;99.90;;;;;;4975312;28;20272;-75
2023/02/02 01:03:21;;;;;;;15.10;2.90;;;5.60;99.90;;;;;;4975116;28;20246;-75
2023/02/02 01:05:50;;;;;;;13.40;2.30;;;5.40;99.90;;;;;;4975445;28;20305;-75
2023/02/02 01:08:19;;;;;;;15.63;2.43;;;5.50;99.90;;;;;;4974017;28;20213;-76
2023/02/02 01:10:46;;;;;;;11.00;1.87;;;5.40;99.90;;;;;;4975147;28;20295;-75
2023/02/02 01:13:13;;;;;;;10.03;2.40;;;5.40;99.90;;;;;;4974620;28;20205;-76
2023/02/02 01:15:40;;;;;;;7.40;1.93;;;5.40;99.90;;;;;;4974615;28;20248;-75
2023/02/02 01:18:06;;;;;;;8.23;1.97;;;5.40;99.90;;;;;;4974616;28;20281;-76
2023/02/02 01:20:33;;;;;;;10.97;1.97;;;5.40;99.90;;;;;;4973829;28;20233;-75
2023/02/02 01:23:00;;;;;;;6.80;1.60;;;5.40;99.90;;;;;;4973588;28;20225;-75
2023/02/02 01:25:31;;;;;;;10.47;1.70;;;5.40;99.90;;;;;;4974026;28;20246;-75
2023/02/02 01:27:58;;;;;;;14.00;2.10;;;5.40;99.90;;;;;;4962787;28;20708;-76
2023/02/02 01:30:25;;;;;;;9.80;2.20;;;5.30;99.90;;;;;;4958312;28;20313;-76
2023/02/02 01:32:52;;;;;;;14.50;2.43;;;5.30;99.90;;;;;;4974568;28;20238;-76
2023/02/02 01:35:19;;;;;;;10.43;1.70;;;5.30;99.90;;;;;;4973720;28;20297;-75
2023/02/02 01:37:45;;;;;;;15.17;2.30;;;5.40;99.90;;;;;;4974801;28;20644;-75
2023/02/02 01:40:13;;;;;;;17.80;3.20;;;5.40;99.90;;;;;;4973538;28;20244;-75
2023/02/02 01:42:42;;;;;;;12.50;2.27;;;5.40;99.90;;;;;;4974606;28;20190;-75
2023/02/02 01:45:27;;;;;;;8.00;2.20;;;5.40;99.90;;;;;;4973894;28;20237;-75
2023/02/02 01:47:57;;;;;;;14.97;2.53;;;5.40;99.90;;;;;;4974123;28;20198;-76
2023/02/02 01:50:28;;;;;;;11.83;2.77;;;5.30;99.90;;;;;;4973421;28;20261;-76
2023/02/02 01:52:58;;;;;;;19.57;2.53;;;5.30;99.90;;;;;;4973506;28;20288;-75
2023/02/02 01:55:27;;;;;;;9.87;2.00;;;5.20;99.90;;;;;;4974252;28;20289;-75
2023/02/02 01:57:59;;;;;;;10.37;2.13;;;5.20;99.90;;;;;;4973111;28;20292;-75
2023/02/02 02:00:26;;;;;;;11.63;2.27;;;5.30;99.90;;;;;;4974442;28;20248;-75
2023/02/02 02:02:57;;;;;;;13.17;2.43;;;5.30;99.90;;;;;;4973793;28;20208;-76
2023/02/02 02:05:30;;;;;;;17.30;3.43;;;5.30;99.90;;;;;;4973203;28;20679;-76
2023/02/02 02:08:03;;;;;;;12.60;2.57;;;5.30;99.90;;;;;;4972688;28;20210;-76
2023/02/02 02:10:30;;;;;;;16.23;2.13;;;5.40;99.90;;;;;;4971736;28;20230;-75
2023/02/02 02:12:59;;;;;;;11.87;2.03;;;5.50;99.90;;;;;;4972851;28;20248;-75
2023/02/02 02:18:25;;;;;;;13.40;2.30;;;5.40;99.90;;;;;;4974201;28;20333;-75
2023/02/02 02:28:14;;;;;;;18.77;2.13;;;5.60;99.90;;;;;;4964155;28;20252;-75
2023/02/02 02:31:18;;;;;;;20.57;3.13;;;5.70;99.90;;;;;;4971085;28;20655;-75
2023/02/02 02:33:51;;;;;;;14.17;2.23;;;5.50;99.90;;;;;;4972431;28;20296;-75
2023/02/02 02:36:26;;;;;;;15.00;2.17;;;5.50;99.90;;;;;;4972991;28;20219;-75
2023/02/02 02:39:00;;;;;;;15.23;2.40;;;5.50;99.90;;;;;;4972397;28;20244;-75
2023/02/02 02:41:32;;;;;;;11.50;2.13;;;5.50;99.90;;;;;;4973300;28;20210;-75
2023/02/02 02:44:02;;;;;;;13.10;2.30;;;5.40;99.90;;;;;;4973070;28;20739;-76
2023/02/02 02:46:29;;;;;;;10.07;1.70;;;5.30;99.90;;;;;;4972898;28;20285;-75
2023/02/02 02:48:59;;;;;;;11.70;2.00;;;5.40;99.90;;;;;;4972596;28;20639;-75
2023/02/02 02:51:45;;;;;;;15.53;2.10;;;5.40;99.90;;;;;;4973060;28;20213;-76
2023/02/02 02:54:14;;;;;;;11.13;2.17;;;5.30;99.90;;;;;;4973577;28;20244;-76
2023/02/02 02:56:52;;;;;;;11.50;2.07;;;5.30;99.90;;;;;;4973462;28;20300;-75
2023/02/02 02:59:28;;;;;;;9.97;1.80;;;5.30;99.90;;;;;;4972369;28;20284;-75
2023/02/02 03:02:04;;;;;;;12.10;2.20;;;5.30;99.90;;;;;;4968085;28;20206;-76
2023/02/02 03:04:40;;;;;;;13.27;1.70;;;5.40;99.90;;;;;;4955470;28;20634;-76
2023/02/02 03:07:12;;;;;;;10.60;2.13;;;5.30;99.90;;;;;;4972985;28;20616;-76
2023/02/02 03:09:42;;;;;;;15.30;2.03;;;5.40;99.90;;;;;;4972165;28;20237;-75
2023/02/02 03:12:10;;;;;;;10.07;1.53;;;5.40;99.90;;;;;;4972960;28;20264;-75
2023/02/02 03:14:38;;;;;;;12.47;2.00;;;5.30;99.90;;;;;;4972160;28;20293;-75
2023/02/02 03:17:05;;;;;;;8.77;1.67;;;5.20;99.90;;;;;;4972316;28;20214;-75
2023/02/02 03:19:33;;;;;;;6.77;1.80;;;5.30;99.90;;;;;;4973230;28;20237;-76
2023/02/02 03:22:00;;;;;;;10.87;2.23;;;5.20;99.90;;;;;;4972495;28;20289;-76
2023/02/02 03:24:27;;;;;;;11.07;2.00;;;5.20;99.90;;;;;;4971964;28;20214;-76
2023/02/02 03:26:54;;;;;;;16.30;2.10;;;5.30;99.90;;;;;;4972230;28;20708;-75
2023/02/02 03:29:21;;;;;;;13.73;1.70;;;5.20;99.90;;;;;;4973087;28;20285;-76
2023/02/02 03:31:49;;;;;;;11.03;2.20;;;5.20;99.90;;;;;;4970606;28;20312;-75
2023/02/02 03:34:16;;;;;;;16.00;2.73;;;5.30;99.90;;;;;;4973215;28;20293;-75
2023/02/02 03:36:44;;;;;;;12.63;2.10;;;5.30;99.90;;;;;;4972837;28;20233;-75
2023/02/02 03:39:11;;;;;;;12.67;2.10;;;5.30;99.90;;;;;;4972653;28;20283;-75
2023/02/02 03:41:38;;;;;;;18.40;2.90;;;5.30;99.90;;;;;;4972623;28;20244;-76
2023/02/02 03:44:05;;;;;;;18.57;3.23;;;5.30;99.90;;;;;;4971140;28;20272;-75
2023/02/02 03:46:32;;;;;;;13.60;2.30;;;5.40;99.90;;;;;;4971340;28;20284;-75
2023/02/02 03:48:59;;;;;;;17.70;1.90;;;5.30;99.90;;;;;;4952747;29;20548;-75
2023/02/02 03:51:26;;;;;;;16.73;2.23;;;5.20;99.90;;;;;;4959633;28;20272;-76
2023/02/02 03:53:54;;;;;;;12.60;2.60;;;5.30;99.90;;;;;;4971369;28;20682;-76
2023/02/02 03:56:21;;;;;;;15.27;2.70;;;5.20;99.90;;;;;;4972431;28;20667;-76
2023/02/02 03:58:48;;;;;;;15.93;2.40;;;5.20;99.90;;;;;;4970737;28;20296;-76
2023/02/02 04:01:15;;;;;;;12.03;1.83;;;5.10;99.90;;;;;;4971971;28;20268;-76
2023/02/02 04:03:42;;;;;;;16.30;3.30;;;5.10;99.90;;;;;;4971129;28;20202;-76
2023/02/02 04:06:09;;;;;;;10.53;2.20;;;5.00;99.90;;;;;;4971606;28;20201;-75
2023/02/02 04:08:38;;;;;;;15.03;2.87;;;5.00;99.90;;;;;;4971908;28;20241;-76
2023/02/02 04:11:10;;;;;;;15.07;2.63;;;5.00;99.90;;;;;;4972089;28;20226;-75
2023/02/02 04:13:36;;;;;;;13.47;2.10;;;5.10;99.90;;;;;;4970365;28;20198;-75
2023/02/02 04:16:04;;;;;;;11.87;2.27;;;5.20;99.90;;;;;;4971155;28;20229;-75
2023/02/02 04:18:31;;;;;;;13.07;2.70;;;5.20;99.90;;;;;;4972244;28;20209;-76
2023/02/02 04:20:58;;;;;;;12.13;2.40;;;5.10;99.90;;;;;;4970770;28;20241;-75
2023/02/02 04:23:26;;;;;;;14.67;1.90;;;5.20;99.90;;;;;;4974780;28;20633;-76
2023/02/02 04:25:53;;;;;;;14.90;2.43;;;5.20;99.90;;;;;;4975305;28;20687;-75
2023/02/02 04:28:22;;;;;;;17.83;2.93;;;5.20;99.90;;;;;;4975794;28;20644;-75
2023/02/02 04:30:49;;;;;;;15.50;2.67;;;5.30;99.90;;;;;;4975263;28;20201;-75
2023/02/02 04:33:16;;;;;;;12.57;2.40;;;5.20;99.90;;;;;;4973758;28;20245;-76
2023/02/02 04:35:43;;;;;;;12.93;1.97;;;5.30;99.90;;;;;;4974899;28;20241;-76
2023/02/02 04:38:11;;;;;;;15.40;3.43;;;5.30;99.90;;;;;;4976002;28;20237;-75
2023/02/02 04:40:39;;;;;;;14.37;2.80;;;5.30;99.90;;;;;;4975255;28;20292;-75
2023/02/02 04:43:06;;;;;;;10.80;2.27;;;5.30;99.90;;;;;;4975688;28;20209;-76
2023/02/02 04:45:35;;;;;;;15.50;2.30;;;5.20;99.90;;;;;;4974949;28;20202;-75
2023/02/02 04:48:02;;;;;;;18.50;2.63;;;5.20;99.90;;;;;;4974969;28;20233;-76
2023/02/02 04:50:29;;;;;;;10.30;2.53;;;5.20;99.90;;;;;;4976022;28;20293;-75
2023/02/02 04:52:56;;;;;;;12.30;2.30;;;5.10;99.90;;;;;;4974190;28;20268;-75
2023/02/02 04:55:24;;;;;;;17.97;2.87;;;5.10;99.90;;;;;;4975328;28;20293;-76
2023/02/02 04:57:51;;;;;;;9.60;2.10;;;5.00;99.90;;;;;;4975173;28;20252;-76
2023/02/02 05:00:18;;;;;;;11.90;2.07;;;5.10;99.90;;;;;;4974420;28;20242;-75
2023/02/02 05:02:46;;;;;;;15.87;2.57;;;5.00;99.90;;;;;;4975279;28;20260;-76
2023/02/02 05:05:14;;;;;;;13.13;2.10;;;5.10;99.90;;;;;;4974671;28;20244;-75
2023/02/02 05:07:42;;;;;;;14.77;2.97;;;5.00;99.90;;;;;;4975546;28;20293;-76
2023/02/02 05:10:10;;;;;;;15.87;2.90;;;5.00;99.90;;;;;;4974469;28;20237;-76
2023/02/02 05:12:37;;;;;;;15.90;3.10;;;5.10;99.90;;;;;;4974121;28;20538;-76
2023/02/02 05:15:05;;;;;;;14.00;2.20;;;5.00;99.90;;;;;;4974674;28;20290;-76
2023/02/02 05:17:32;;;;;;;15.67;2.33;;;5.00;99.90;;;;;;4974495;28;20541;-76
2023/02/02 05:20:00;;;;;;;12.40;2.53;;;4.90;99.90;;;;;;4973220;28;20197;-76
2023/02/02 05:22:27;;;;;;;19.03;3.00;;;4.90;99.90;;;;;;4973853;28;20297;-76
2023/02/02 05:24:57;;;;;;;15.43;2.83;;;4.90;99.90;;;;;;4975151;28;20241;-75
2023/02/02 05:27:24;;;;;;;10.07;2.30;;;4.90;99.90;;;;;;4974032;28;20252;-76
2023/02/02 05:29:50;;;;;;;18.90;4.27;;;5.00;99.90;;;;;;4975190;28;20233;-76
2023/02/02 05:32:17;;;;;;;15.73;3.40;;;5.00;99.90;;;;;;4973467;28;20316;-76
2023/02/02 05:34:44;;;;;;;17.13;2.83;;;5.00;99.90;;;;;;4975107;28;20245;-75
2023/02/02 05:37:13;;;;;;;11.87;3.53;;;5.00;99.90;;;;;;4974072;28;20245;-76
2023/02/02 05:39:40;;;;;;;18.53;2.80;;;5.00;99.90;;;;;;4975277;28;20764;-76
2023/02/02 05:42:07;;;;;;;14.13;2.37;;;5.00;99.90;;;;;;4973643;28;20316;-76
2023/02/02 05:44:34;;;;;;;17.10;2.90;;;5.10;99.90;;;;;;4974946;28;20237;-70
2023/02/02 05:47:01;;;;;;;14.17;2.90;;;5.10;99.90;;;;;;4974246;28;20304;-71
2023/02/02 05:49:28;;;;;;;11.40;2.93;;;5.00;99.90;;;;;;4974650;28;20245;-71
2023/02/02 05:51:57;;;;;;;15.70;3.50;;;5.00;99.90;;;;;;4974051;28;20332;-71
2023/02/02 05:54:26;;;;;;;13.33;2.83;;;4.90;99.90;;;;;;4973776;28;20241;-71
2023/02/02 05:56:54;;;;;;;15.57;4.00;;;4.90;99.90;;;;;;4974367;28;20237;-71
2023/02/02 05:59:23;;;;;;;16.00;2.43;;;4.90;99.90;;;;;;4972307;28;20582;-71
2023/02/02 06:01:50;;;;;;;14.97;3.83;;;5.00;99.90;;;;;;4968619;28;20236;-71
2023/02/02 06:04:17;;;;;;;19.23;3.07;;;4.90;99.90;;;;;;4970710;28;20241;-71
2023/02/02 06:06:45;;;;;;;18.83;3.57;;;5.00;99.90;;;;;;4968715;28;20210;-70
2023/02/02 06:09:12;;;;;;;14.77;3.00;;;4.90;99.90;;;;;;4971940;28;20233;-71
2023/02/02 06:11:42;;;;;;;17.57;3.10;;;4.90;99.90;;;;;;4968988;28;20297;-71
2023/02/02 06:14:09;;;;;;;17.90;3.13;;;4.90;99.90;;;;;;4974254;28;20212;-71
2023/02/02 06:16:36;;;;;;;19.00;3.23;;;4.90;99.90;;;;;;4968974;28;20201;-71
2023/02/02 06:19:05;;;;;;;18.13;2.97;;;4.90;99.90;;;;;;4966996;28;20202;-71
2023/02/02 06:21:32;;;;;;;19.73;2.70;;;4.80;99.90;;;;;;4968847;28;20268;-71
2023/02/02 06:24:00;;;;;;;12.67;2.70;;;4.80;99.90;;;;;;4969006;28;20621;-71
2023/02/02 06:26:28;;;;;;;19.57;4.10;;;4.80;99.90;;;;;;4973241;28;20220;-71
2023/02/02 06:28:56;;;;;;;17.30;3.33;;;4.80;99.90;;;;;;4972339;28;20293;-71
2023/02/02 06:31:24;;;;;;;15.60;2.70;;;4.80;99.90;;;;;;4964241;28;20265;-71
2023/02/02 06:33:54;;;;;;;14.00;2.70;;;4.80;99.90;;;;;;4966554;28;20230;-71
2023/02/02 06:36:22;;;;;;;16.03;3.27;;;4.80;99.90;;;;;;4969393;28;20285;-71
2023/02/02 06:38:50;;;;;;;15.70;2.77;;;4.80;99.90;;;;;;4965793;28;20244;-71
2023/02/02 06:41:17;;;;;;;16.57;2.60;;;4.80;99.90;;;;;;4970063;28;20217;-71
2023/02/02 06:43:44;;;;;;;12.20;2.50;;;4.90;99.90;;;;;;4967594;28;20696;-71
2023/02/02 06:46:12;;;;;;;14.90;2.87;;;4.90;99.90;;;;;;4968434;28;20201;-71
2023/02/02 06:48:40;;;;;;;13.90;3.73;;;4.90;99.90;;;;;;4969990;28;20655;-71
2023/02/02 06:51:07;;;;;;;19.20;3.70;;;4.90;99.90;;;;;;4966483;28;20280;-69
2023/02/02 06:53:35;;;;;;;23.83;3.60;;;4.90;99.90;;;;;;4970762;28;20233;-71
2023/02/02 06:56:05;;;;;;;13.20;3.03;;;5.00;99.90;;;;;;4963442;28;20290;-72
2023/02/02 06:58:33;;;;;;;15.43;2.50;;;4.90;99.90;;;;;;4970686;28;20217;-72
2023/02/02 07:01:05;;;;;;;19.73;2.63;;;5.00;99.90;;;;;;4971453;28;20261;-72
2023/02/02 07:03:34;;;;;;;14.53;2.70;;;5.10;99.90;;;;;;4967297;28;20249;-72
2023/02/02 07:06:11;;;;;;;15.60;2.23;;;5.20;99.90;;;;;;4965447;28;20234;-72
2023/02/02 07:08:38;;;;;;;14.23;2.50;;;5.10;99.90;;;;;;4969682;28;20261;-72
2023/02/02 07:11:05;;;;;;;18.57;5.07;;;5.20;99.90;;;;;;4967466;28;20207;-72
2023/02/02 07:13:32;;;;;;;15.53;2.60;;;5.30;99.90;;;;;;4969780;28;20724;-71
2023/02/02 07:15:59;;;;;;;11.97;2.20;;;5.20;99.90;;;;;;4971982;28;20257;-71
2023/02/02 07:18:26;;;;;;;17.17;2.70;;;5.20;99.90;;;;;;4970631;28;20520;-72
2023/02/02 07:20:54;;;;;;;18.93;4.30;;;5.30;99.90;;;;;;4971950;28;20233;-72
2023/02/02 07:23:21;;;;;;;17.27;3.50;;;5.40;99.90;;;;;;4967132;28;20234;-72
2023/02/02 07:25:48;;;;;;;19.03;2.60;;;5.30;99.90;;;;;;4964017;28;20229;-71
2023/02/02 07:28:15;;;;;;;17.37;3.47;;;5.40;99.90;;;;;;4968767;28;20297;-72
2023/02/02 07:30:42;;;;;;;16.73;2.50;;;5.30;99.90;;;;;;4966054;28;20202;-72
2023/02/02 07:33:09;;;;;;;12.07;2.73;;;5.30;99.90;;;;;;4968201;28;20644;-72
2023/02/02 07:35:36;;;;;;;17.13;2.70;;;5.30;99.90;;;;;;4966275;28;20257;-72
2023/02/02 07:38:04;;;;;;;17.67;3.13;;;5.30;99.90;;;;;;4967779;28;20241;-72
2023/02/02 07:40:31;;;;;;;16.63;2.50;;;5.40;99.90;;;;;;4968219;28;20289;-72
2023/02/02 07:42:59;;;;;;;14.77;2.50;;;5.40;99.90;;;;;;4973171;28;20241;-72
2023/02/02 07:45:27;;;;;;;14.30;2.30;;;5.50;99.90;;;;;;4970569;28;20210;-72
2023/02/02 07:47:56;;;;;;;11.07;2.00;;;5.40;99.90;;;;;;4967950;28;20233;-72
2023/02/02 07:50:25;;;;;;;15.37;3.17;;;5.40;99.90;;;;;;4974249;28;20205;-72
2023/02/02 07:52:52;;;;;;;11.83;2.17;;;5.40;99.90;;;;;;4970525;28;20230;-72
2023/02/02 07:55:21;;;;;;;18.33;3.00;;;5.40;99.90;;;;;;4970539;28;20648;-72
2023/02/02 07:57:48;;;;;;;16.80;3.37;;;5.40;99.90;;;;;;4969015;28;20216;-72
2023/02/02 08:00:16;;;;;;;14.80;3.00;;;5.40;99.90;;;;;;4967443;28;20240;-72
2023/02/02 08:02:43;;;;;;;17.33;3.70;;;5.50;99.90;;;;;;4968931;28;20284;-72
2023/02/02 08:05:10;;;;;;;20.07;4.40;;;5.50;99.90;;;;;;4969764;28;20237;-72
2023/02/02 08:07:37;;;;;;;12.87;2.50;;;5.50;99.90;;;;;;4966764;28;20314;-72
2023/02/02 08:10:04;;;;;;;15.70;3.27;;;5.50;99.90;;;;;;4959142;28;20233;-72
2023/02/02 08:12:32;;;;;;;18.37;3.33;;;5.50;99.90;;;;;;4972868;28;20236;-72
2023/02/02 08:14:59;;;;;;;19.17;2.70;;;5.60;99.90;;;;;;4972785;28;20248;-72
2023/02/02 08:17:26;;;;;;;14.70;4.33;;;5.60;99.90;;;;;;4967234;28;20214;-72
2023/02/02 08:19:53;;;;;;;12.43;2.93;;;5.70;99.90;;;;;;4968306;28;20288;-72
2023/02/02 08:22:20;;;;;;;15.27;3.50;;;5.70;99.90;;;;;;4964097;28;20581;-75
2023/02/02 08:24:48;;;;;;;20.70;5.20;;;5.70;99.90;;;;;;4965937;28;20296;-72
2023/02/02 08:27:16;;;;;;;15.53;4.40;;;5.80;99.90;;;;;;4971251;28;20220;-71
2023/02/02 08:29:45;;;;;;;16.30;4.20;;;5.80;99.90;;;;;;4967283;28;20197;-75
2023/02/02 08:32:12;;;;;;;20.17;4.43;;;5.90;99.90;;;;;;4969434;28;20213;-69
2023/02/02 08:34:39;;;;;;;20.23;4.33;;;6.00;99.90;;;;;;4966837;28;20288;-69
2023/02/02 08:37:06;;;;;;;15.87;3.03;;;5.90;99.90;;;;;;4967556;28;20206;-69
2023/02/02 08:39:33;;;;;;;12.47;3.03;;;6.00;99.90;;;;;;4964615;28;20286;-69
2023/02/02 08:42:00;;;;;;;11.23;3.30;;;6.10;99.90;;;;;;4969229;28;20209;-69
2023/02/02 08:44:28;;;;;;;10.90;2.60;;;6.10;99.90;;;;;;4967408;28;20716;-69
2023/02/02 08:46:56;;;;;;;11.47;2.90;;;6.10;99.90;;;;;;4967829;28;20232;-69
2023/02/02 08:49:23;;;;;;;16.20;3.00;;;6.10;99.90;;;;;;4971200;28;20206;-69
2023/02/02 08:51:50;;;;;;;11.67;3.07;;;6.00;99.90;;;;;;4970891;28;20679;-69
2023/02/02 08:54:17;;;;;;;11.33;2.20;;;6.00;99.90;;;;;;4970760;28;20317;-69
2023/02/02 08:56:44;;;;;;;13.33;2.43;;;6.00;99.90;;;;;;4961858;28;20269;-69
2023/02/02 08:59:11;;;;;;;10.70;2.17;;;6.10;99.90;;;;;;4970504;28;20665;-69
2023/02/02 09:01:38;;;;;;;10.67;2.40;;;6.10;99.90;;;;;;4966806;28;20203;-69
2023/02/02 09:04:08;;;;;;;13.73;3.00;;;6.00;99.90;;;;;;4969005;28;20676;-69
2023/02/02 09:06:36;;;;;;;13.23;2.43;;;6.00;99.90;;;;;;4971779;28;20293;-69
2023/02/02 09:09:04;;;;;;;8.00;3.03;;;6.00;99.90;;;;;;4974415;28;20280;-69
2023/02/02 09:11:31;;;;;;;12.17;1.93;;;6.00;99.90;;;;;;4974647;28;20237;-69
2023/02/02 09:14:00;;;;;;;8.07;2.30;;;6.10;99.90;;;;;;4974462;28;20213;-71
2023/02/02 09:16:28;;;;;;;10.07;2.20;;;6.10;99.90;;;;;;4974612;28;20217;-71
2023/02/02 09:18:55;;;;;;;8.93;2.17;;;6.10;99.90;;;;;;4975337;28;20288;-71
2023/02/02 09:21:24;;;;;;;13.43;3.33;;;6.10;99.90;;;;;;4973301;28;20202;-71
2023/02/02 09:23:53;;;;;;;11.53;2.90;;;6.20;99.90;;;;;;4973900;28;20296;-71
2023/02/02 09:26:22;;;;;;;14.87;2.83;;;6.30;99.90;;;;;;4975358;28;20216;-71
2023/02/02 09:28:51;;;;;;;14.53;2.97;;;6.40;99.90;;;;;;4975598;28;20209;-71
2023/02/02 09:31:18;;;;;;;14.00;3.60;;;6.30;99.90;;;;;;4974127;28;20664;-71
2023/02/02 09:33:46;;;;;;;10.17;2.60;;;6.40;99.90;;;;;;4973487;28;20324;-71
2023/02/02 09:36:14;;;;;;;11.03;2.60;;;6.40;99.90;;;;;;4973649;28;20652;-71
2023/02/02 09:38:43;;;;;;;11.67;2.70;;;6.40;99.90;;;;;;4974361;28;20296;-71
2023/02/02 09:42:01;;;;;;;10.37;2.30;;;6.40;99.90;;;;;;4975279;28;20659;-71
2023/02/02 09:44:50;;;;;;;10.43;2.47;;;6.40;99.90;;;;;;4915267;29;20243;-71
2023/02/02 09:47:21;;;;;;;10.63;3.30;;;6.30;99.90;;;;;;4973786;28;20241;-71
2023/02/02 09:49:55;;;;;;;9.20;2.40;;;6.40;99.90;;;;;;4973802;28;20304;-71
2023/02/02 09:52:26;;;;;;;7.63;1.90;;;6.50;99.90;;;;;;4973896;28;20860;-71
2023/02/02 09:55:00;;;;;;;9.83;2.50;;;6.60;99.90;;;;;;4973929;28;20312;-71
2023/02/02 09:57:31;;;;;;;13.30;3.17;;;6.60;99.90;;;;;;4974361;28;20209;-71
2023/02/02 09:59:58;;;;;;;13.77;2.57;;;6.60;99.90;;;;;;4974521;28;20285;-71
2023/02/02 10:02:30;;;;;;;13.83;4.53;;;6.80;99.90;;;;;;4974253;28;20357;-71
2023/02/02 10:05:04;;;;;;;16.20;3.33;;;6.80;99.90;;;;;;4974476;28;20236;-71
2023/02/02 10:07:38;;;;;;;11.90;3.10;;;6.80;99.90;;;;;;4972407;28;20297;-71
2023/02/02 10:10:14;;;;;;;8.37;1.93;;;6.90;99.90;;;;;;4973355;28;20244;-71
2023/02/02 10:12:47;;;;;;;9.00;2.00;;;6.90;99.90;;;;;;4972722;28;20244;-71
2023/02/02 10:15:22;;;;;;;12.23;2.30;;;6.90;99.90;;;;;;4973474;28;20218;-71
2023/02/02 10:17:54;;;;;;;8.57;1.93;;;6.90;99.90;;;;;;4974408;28;20217;-71
2023/02/02 10:20:33;;;;;;;10.53;2.20;;;6.90;99.90;;;;;;4971984;28;20241;-72
2023/02/02 10:23:08;;;;;;;10.43;1.83;;;7.10;99.90;;;;;;4972518;28;20292;-72
2023/02/02 10:25:39;;;;;;;12.30;2.30;;;7.10;99.90;;;;;;4974462;28;20244;-72
2023/02/02 10:28:11;;;;;;;12.90;2.33;;;7.20;99.90;;;;;;4972538;28;20289;-72
2023/02/02 10:30:44;;;;;;;7.60;1.73;;;7.10;99.90;;;;;;4973855;28;20692;-71
2023/02/02 10:33:20;;;;;;;9.87;2.37;;;7.20;99.90;;;;;;4973639;28;20253;-72
2023/02/02 10:35:53;;;;;;;8.67;2.23;;;7.20;99.90;;;;;;4974070;28;20205;-72
2023/02/02 10:38:28;;;;;;;8.43;1.97;;;7.20;99.90;;;;;;4973164;28;20632;-72
2023/02/02 10:41:02;;;;;;;8.33;1.97;;;7.20;99.90;;;;;;4966896;28;20197;-72
2023/02/02 10:43:58;;;;;;;8.93;1.60;;;7.30;99.90;;;;;;4971750;28;20202;-72
2023/02/02 10:46:30;;;;;;;12.03;1.77;;;7.50;99.90;;;;;;4973474;28;20212;-72
2023/02/02 10:49:11;;;;;;;9.03;1.70;;;7.60;99.90;;;;;;4973591;28;20206;-72
2023/02/02 10:51:39;;;;;;;13.00;2.50;;;7.90;99.90;;;;;;4973727;28;20237;-72
2023/02/02 10:54:20;;;;;;;9.60;2.10;;;8.10;99.90;;;;;;4973701;28;20308;-72
2023/02/02 10:56:53;;;;;;;9.73;1.97;;;8.10;99.90;;;;;;4964438;28;20280;-72
2023/02/02 10:59:25;;;;;;;9.77;2.10;;;8.00;99.90;;;;;;4971416;28;20256;-72
2023/02/02 11:01:52;;;;;;;8.03;1.63;;;7.90;99.90;;;;;;4972803;28;20261;-72
2023/02/02 11:07:06;;;;;;;8.00;2.10;;;8.30;99.90;;;;;;4973622;28;20224;-72
2023/02/02 11:09:39;;;;;;;6.80;2.20;;;8.40;99.90;;;;;;4973167;28;20236;-72
2023/02/02 11:12:17;;;;;;;11.10;2.27;;;8.50;99.90;;;;;;4973136;28;20241;-72
2023/02/02 11:14:49;;;;;;;8.40;2.00;;;8.60;99.90;;;;;;4972416;28;20582;-72
2023/02/02 11:17:22;;;;;;;11.00;1.73;;;8.40;99.90;;;;;;4972489;28;20198;-72
2023/02/02 11:19:49;;;;;;;11.97;2.10;;;8.40;99.90;;;;;;4972353;28;20755;-72
2023/02/02 11:22:31;;;;;;;9.73;2.00;;;8.40;99.90;;;;;;4973148;28;20640;-72
2023/02/02 11:25:00;;;;;;;12.07;1.90;;;8.20;99.90;;;;;;4972770;28;20293;-73
2023/02/02 11:27:33;;;;;;;9.30;2.47;;;8.20;99.90;;;;;;4973377;28;20237;-72
2023/02/02 11:30:12;;;;;;;7.80;1.70;;;7.90;99.90;;;;;;4972189;28;20304;-72
2023/02/02 11:32:40;;;;;;;7.00;1.73;;;7.90;99.90;;;;;;4972919;28;20257;-72
2023/02/02 11:35:16;;;;;;;11.07;2.73;;;7.90;99.90;;;;;;4972613;28;20225;-72
2023/02/02 11:37:57;;;;;;;12.13;2.30;;;7.90;99.90;;;;;;4973279;28;20201;-72
2023/02/02 11:40:33;;;;;;;10.77;2.27;;;7.70;99.90;;;;;;4971971;28;20251;-72
2023/02/02 11:43:04;;;;;;;6.53;1.70;;;7.70;99.90;;;;;;4972569;28;20261;-72
2023/02/02 11:45:35;;;;;;;7.40;2.10;;;7.70;99.90;;;;;;4971785;28;20292;-72
2023/02/02 11:48:06;;;;;;;11.50;2.60;;;7.70;99.90;;;;;;4971684;28;20206;-72
2023/02/02 11:50:33;;;;;;;11.53;2.90;;;7.80;99.90;;;;;;4973001;28;20523;-72
2023/02/02 11:53:00;;;;;;;11.03;2.47;;;7.70;99.90;;;;;;4971205;28;20241;-72
2023/02/02 11:55:30;;;;;;;11.60;2.57;;;7.70;99.90;;;;;;4972444;28;20316;-73
2023/02/02 11:58:26;;;;;;;11.00;2.67;;;7.60;99.90;;;;;;4971745;28;20248;-72
2023/02/02 12:00:56;;;;;;;10.73;2.83;;;7.60;99.90;;;;;;4972907;28;20205;-72
2023/02/02 12:03:26;;;;;;;13.23;2.83;;;7.70;99.90;;;;;;4972210;28;20296;-72
2023/02/02 12:05:53;;;;;;;8.60;1.80;;;7.60;99.90;;;;;;4972759;28;20289;-72
2023/02/02 12:08:21;;;;;;;9.97;2.57;;;7.60;99.90;;;;;;4971676;28;20292;-72
2023/02/02 12:10:58;;;;;;;10.10;2.50;;;7.60;99.90;;;;;;4972617;28;20210;-72
2023/02/02 12:13:53;;;;;;;14.00;2.53;;;7.60;99.90;;;;;;4971103;28;20377;-72
2023/02/02 12:16:52;;;;;;;24.50;5.20;;;7.50;99.90;;;;;;4966940;28;20300;-72
2023/02/02 12:19:57;;;;;;;14.33;2.30;;;7.70;99.90;;;;;;4971947;28;20217;-72
2023/02/02 12:22:36;;;;;;;13.07;2.77;;;7.60;99.90;;;;;;4949445;28;20684;-73
2023/02/02 12:25:21;;;;;;;19.97;3.63;;;7.60;99.90;;;;;;4968364;28;20641;-73
2023/02/02 12:27:53;;;;;;;23.80;4.57;;;7.50;99.90;;;;;;4962076;28;20637;-72
2023/02/02 12:30:31;;;;;;;18.47;3.87;;;7.50;99.90;;;;;;4973842;28;20241;-72
2023/02/02 12:33:13;;;;;;;13.17;2.80;;;7.50;99.90;;;;;;4966709;28;20205;-72
2023/02/02 12:36:00;;;;;;;9.13;2.27;;;7.50;99.90;;;;;;4967909;28;20229;-72
2023/02/02 12:38:40;;;;;;;13.77;2.67;;;7.50;99.90;;;;;;4976034;28;20289;-72
2023/02/02 12:41:29;;;;;;;19.03;3.30;;;7.50;99.90;;;;;;4957271;28;20202;-72
2023/02/02 12:44:02;;;;;;;12.17;2.37;;;7.50;99.90;;;;;;4968341;28;20236;-72
2023/02/02 12:46:48;;;;;;;13.53;3.70;;;7.50;99.90;;;;;;4979488;28;20241;-72
2023/02/02 12:49:26;;;;;;;14.00;3.00;;;7.50;99.90;;;;;;4970520;28;20687;-72
2023/02/02 12:52:10;;;;;;;14.83;3.90;;;7.50;99.90;;;;;;4968053;28;20202;-73
2023/02/02 12:54:55;;;;;;;5.97;2.63;;;7.50;99.90;;;;;;4968919;28;20230;-73
2023/02/02 12:57:30;;;;;;;10.03;3.20;;;7.50;99.90;;;;;;4969705;28;20299;-73
2023/02/02 13:00:23;;;;;;;14.37;3.00;;;7.60;99.90;;;;;;4973224;28;20240;-73
2023/02/02 13:03:03;;;;;;;19.03;3.47;;;7.60;99.90;;;;;;4967858;28;20711;-73
2023/02/02 13:05:45;;;;;;;12.20;3.33;;;7.50;99.90;;;;;;4972200;28;20248;-73
2023/02/02 13:08:16;;;;;;;16.13;3.97;;;7.50;99.90;;;;;;4962027;28;20613;-73
2023/02/02 13:10:47;;;;;;;15.90;4.07;;;7.50;99.90;;;;;;4979429;28;20563;-73
2023/02/02 13:13:18;;;;;;;15.53;4.43;;;7.60;99.90;;;;;;4972575;28;20562;-73
2023/02/02 13:15:49;;;;;;;10.00;2.93;;;7.60;99.90;;;;;;4971154;28;20287;-73
2023/02/02 13:18:22;;;;;;;13.50;3.30;;;7.70;99.90;;;;;;4980198;28;20734;-72